Messwerte Virginia Beach

Temperatur

Temperatur
°C
1603288800 10.00 10.00 23
1603292400 11.00 11.00 26
1603296000 12.00 12.00 27
1603299600 13.00 13.00 27
1603303200 14.00 14.00 27
1603306800 15.00 15.00 26
1603310400 16.00 16.00 26
1603314000 17.00 17.00 25
1603317600 18.00 18.00 23
1603321200 19.00 19.00 22
1603324800 20.00 20.00 21
1603328400 21.00 21.00 19
1603332000 22.00 22.00 19
1603335600 23.00 23.00 18
1603339200 0.00 0.00
1603342800 1.00 1.00 18
1603346400 2.00 2.00 17
1603350000 3.00 3.00 17
1603353600 4.00 4.00 16
1603357200 5.00 5.00 16
1603360800 6.00 6.00 16
1603364400 7.00 7.00
1603368000 8.00 8.00 16
1603371600 9.00 9.00 21

Aktuellste Messwerte

Wettercharakter
Wetter: wechselnd bewölkt
Temperatur
24 °C
Feuchtigkeit
75 %
Wind
0 km/h, -
Luftdruck
1024 hPa
Messzeit: 22. Oktober 2020, 10.00Datenquelle: METAR

Weitere Messstationen in der Nähe

Messstation Temperatur Entfernung
Norfolk 22 °C 18 km
Norfolk 22 °C 27 km
Chesapeake 20 °C 31 km
Langley AFB 20 °C 41 km
Currituck 20 °C 47 km
Suffolk 22 °C 53 km
Newport News 22 °C 54 km

Wind

Windrichtung Böen Mittelwind
° km/h km/h
1603288800 10.00 9.00 - 10.00 0
1603292400 11.00 10.00 - 11.00 80° 5
1603296000 12.00 11.00 - 12.00 80° 10
1603299600 13.00 12.00 - 13.00 100° 10
1603303200 14.00 13.00 - 14.00 100° 20
1603306800 15.00 14.00 - 15.00 100° 15
1603310400 16.00 15.00 - 16.00 120° 15
1603314000 17.00 16.00 - 17.00 130° 15
1603317600 18.00 17.00 - 18.00 120° 10
1603321200 19.00 18.00 - 19.00 140° 10
1603324800 20.00 19.00 - 20.00 0
1603328400 21.00 20.00 - 21.00 0
1603332000 22.00 21.00 - 22.00 0
1603335600 23.00 22.00 - 23.00 0
1603339200 0.00 23.00 - 0.00
1603342800 1.00 0.00 - 1.00 0
1603346400 2.00 1.00 - 2.00 0
1603350000 3.00 2.00 - 3.00 0
1603353600 4.00 3.00 - 4.00 340° 0
1603357200 5.00 4.00 - 5.00 0
1603360800 6.00 5.00 - 6.00 0
1603364400 7.00 6.00 - 7.00
1603368000 8.00 7.00 - 8.00 330° 0
1603371600 9.00 8.00 - 9.00 350° 5

Ihre Wetterstation

Fehlt Ihre Wetterstation auf unserem Portal?

Schreiben Sie an network@meteonews.ch

Klima

Wann ist es am wärmsten? Wann regnet es am wenigsten? Unsere Klimadaten geben Auskunft.